Seago Felixstowe — OZCX2 — position and weather

sailwx.info

Track history (hours):
 
Tides and Currents Weather Stations Pressure Air Temp Water Temp Dewpoint Dewpoint Depression Visibility Wind Speed Wind Dir Waves Ship Positions

Seago Felixstowe

Last reported at 2018-Jan-22 07:49 UTC. Time now 2018-Jan-22 08:30 UTC.
Position N 50°02' W 001°47'.

Length 294 m; draft 11 m.

Type: Ship (hazmat cat A). MMSI: 219196000.

Date/timePositionNaut miles runAvg speedWind from/ knotsBaromVisibWave heightAir tempDewpointWater temp
2018-Jan-22 07:49N 50°02' W 001°47'4216.9
2018-Jan-22 05:20N 49°51' W 002°50'716.7
2018-Jan-22 04:54N 49°49' W 003°01'716.7
2018-Jan-22 04:30N 49°45' W 003°10'816.9
2018-Jan-22 04:00N 49°41' W 003°21'7616.7
2018-Jan-21 23:28N 49°01' W 004°60'816.6
2018-Jan-21 23:00N 48°58' W 005°10'816.8
2018-Jan-21 22:30N 48°53' W 005°21'916.9
2018-Jan-21 21:58N 48°49' W 005°33'2116.9
2018-Jan-21 20:43N 48°31' W 005°50'9117.8
2018-Jan-21 15:38N 47°11' W 006°53'43416.9
2018-Jan-20 13:59N 40°16' W 009°51'817.6
2018-Jan-20 13:30N 40°08' W 009°51'917.8
2018-Jan-20 13:01N 39°59' W 009°51'917.7
2018-Jan-20 12:31N 39°50' W 009°52'917.6
2018-Jan-20 12:00N 39°42' W 009°52'1017.3
2018-Jan-20 11:27N 39°32' W 009°53'817.2
2018-Jan-20 11:00N 39°24' W 009°53'817.0
2018-Jan-20 10:31N 39°16' W 009°53'917.3
2018-Jan-20 10:01N 39°07' W 009°53'917.2
2018-Jan-20 09:30N 38°59' W 009°53'917.3
2018-Jan-20 09:01N 38°50' W 009°52'917.1
2018-Jan-20 08:30N 38°41' W 009°52'917.3
2018-Jan-20 08:00N 38°33' W 009°49'917.1
2018-Jan-20 07:30N 38°25' W 009°46'917.2
2018-Jan-20 07:00N 38°16' W 009°44'917.3
2018-Jan-20 06:30N 38°08' W 009°42'917.3
2018-Jan-20 06:00N 37°59' W 009°39'917.2
2018-Jan-20 05:30N 37°51' W 009°37'917.8
2018-Jan-20 05:01N 37°42' W 009°35'918.0
2018-Jan-20 04:30N 37°34' W 009°32'918.1
2018-Jan-20 04:01N 37°25' W 009°29'917.5
2018-Jan-20 03:29N 37°16' W 009°26'817.3
2018-Jan-20 03:00N 37°08' W 009°23'917.4
2018-Jan-20 02:30N 36°59' W 009°21'917.5
2018-Jan-20 02:00N 36°51' W 009°18'917.2
2018-Jan-20 01:30N 36°45' W 009°10'917.3
2018-Jan-20 01:00N 36°42' W 009°00'918.2
2018-Jan-20 00:30N 36°39' W 008°50'1018.2
2018-Jan-19 23:59N 36°36' W 008°38'14418.7
2018-Jan-19 16:18N 35°57' W 005°46'618.5
2018-Jan-19 16:00N 35°57' W 005°40'816.1
2018-Jan-19 15:30N 35°59' W 005°30'714.0
2018-Jan-19 15:00N 36°01' W 005°21'713.5
2018-Jan-19 14:30N 36°02' W 005°13'815.4
2018-Jan-19 14:00N 36°03' W 005°04'815.4
2018-Jan-19 13:30N 36°04' W 004°54'816.0
2018-Jan-19 13:00N 36°05' W 004°45'  
2018-Jan-12 14:43N 31°52' E 034°38'  
Track history (hours):
 
Tides and Currents Weather Stations Pressure Air Temp Water Temp Dewpoint Dewpoint Depression Visibility Wind Speed Wind Dir Waves Ship Positions

Seago Felixstowe

Last reported at 2018-Jan-22 07:49 UTC. Time now 2018-Jan-22 08:30 UTC.
Position N 50°02' W 001°47'.

Length 294 m; draft 11 m.

Type: Ship (hazmat cat A). MMSI: 219196000.

Date/timePositionNaut miles runAvg speedWind from/ knotsBaromVisibWave heightAir tempDewpointWater temp
2018-Jan-22 07:49N 50°02' W 001°47'4216.9
2018-Jan-22 05:20N 49°51' W 002°50'716.7
2018-Jan-22 04:54N 49°49' W 003°01'716.7
2018-Jan-22 04:30N 49°45' W 003°10'816.9
2018-Jan-22 04:00N 49°41' W 003°21'7616.7
2018-Jan-21 23:28N 49°01' W 004°60'816.6
2018-Jan-21 23:00N 48°58' W 005°10'816.8
2018-Jan-21 22:30N 48°53' W 005°21'916.9
2018-Jan-21 21:58N 48°49' W 005°33'2116.9
2018-Jan-21 20:43N 48°31' W 005°50'9117.8
2018-Jan-21 15:38N 47°11' W 006°53'43416.9
2018-Jan-20 13:59N 40°16' W 009°51'817.6
2018-Jan-20 13:30N 40°08' W 009°51'917.8
2018-Jan-20 13:01N 39°59' W 009°51'917.7
2018-Jan-20 12:31N 39°50' W 009°52'917.6
2018-Jan-20 12:00N 39°42' W 009°52'1017.3
2018-Jan-20 11:27N 39°32' W 009°53'817.2
2018-Jan-20 11:00N 39°24' W 009°53'817.0
2018-Jan-20 10:31N 39°16' W 009°53'917.3
2018-Jan-20 10:01N 39°07' W 009°53'917.2
2018-Jan-20 09:30N 38°59' W 009°53'917.3
2018-Jan-20 09:01N 38°50' W 009°52'917.1
2018-Jan-20 08:30N 38°41' W 009°52'917.3
2018-Jan-20 08:00N 38°33' W 009°49'917.1
2018-Jan-20 07:30N 38°25' W 009°46'917.2
2018-Jan-20 07:00N 38°16' W 009°44'917.3
2018-Jan-20 06:30N 38°08' W 009°42'917.3
2018-Jan-20 06:00N 37°59' W 009°39'917.2
2018-Jan-20 05:30N 37°51' W 009°37'917.8
2018-Jan-20 05:01N 37°42' W 009°35'918.0
2018-Jan-20 04:30N 37°34' W 009°32'918.1
2018-Jan-20 04:01N 37°25' W 009°29'917.5
2018-Jan-20 03:29N 37°16' W 009°26'817.3
2018-Jan-20 03:00N 37°08' W 009°23'917.4
2018-Jan-20 02:30N 36°59' W 009°21'917.5
2018-Jan-20 02:00N 36°51' W 009°18'917.2
2018-Jan-20 01:30N 36°45' W 009°10'917.3
2018-Jan-20 01:00N 36°42' W 009°00'918.2
2018-Jan-20 00:30N 36°39' W 008°50'1018.2
2018-Jan-19 23:59N 36°36' W 008°38'14418.7
2018-Jan-19 16:18N 35°57' W 005°46'618.5
2018-Jan-19 16:00N 35°57' W 005°40'816.1
2018-Jan-19 15:30N 35°59' W 005°30'714.0
2018-Jan-19 15:00N 36°01' W 005°21'713.5
2018-Jan-19 14:30N 36°02' W 005°13'815.4
2018-Jan-19 14:00N 36°03' W 005°04'815.4
2018-Jan-19 13:30N 36°04' W 004°54'816.0
2018-Jan-19 13:00N 36°05' W 004°45'  
2018-Jan-12 14:43N 31°52' E 034°38'  

Dump ship's entire track history